Time;durP1;ratioP1;P1;durP2;ratioP2;P2;SDS_P1;SDS_P2;PMS_P1;PMS_P2;Temp;Humidity;BMP_temperature;BMP_pressure;BME280_temperature;BME280_humidity;BME280_pressure;Samples;Min_cycle;Max_cycle;Signal;HPM_P1;HPM_P2
2023/12/17 00:00:52;;;;;;;23.60;12.32;;;7.00;98.50;;;;;;5006788;28;20034;-49
2023/12/17 00:03:17;;;;;;;28.58;11.40;;;7.10;98.50;;;;;;5005691;28;20057;-50
2023/12/17 00:05:43;;;;;;;23.73;11.55;;;7.00;98.50;;;;;;5005630;28;20038;-50
2023/12/17 00:08:08;;;;;;;23.88;12.27;;;7.10;98.60;;;;;;4989250;28;20109;-50
2023/12/17 00:10:34;;;;;;;24.83;11.60;;;7.00;98.50;;;;;;5005478;28;20042;-49
2023/12/17 00:12:59;;;;;;;18.27;10.80;;;7.00;98.50;;;;;;5005500;28;20022;-50
2023/12/17 00:15:25;;;;;;;22.35;11.68;;;7.00;98.60;;;;;;5005375;28;20117;-50
2023/12/17 00:17:50;;;;;;;23.83;11.95;;;7.00;98.60;;;;;;5005392;28;20088;-50
2023/12/17 00:20:16;;;;;;;18.85;12.27;;;7.00;98.60;;;;;;5006520;28;20034;-50
2023/12/17 00:22:42;;;;;;;21.40;12.75;;;7.00;98.60;;;;;;5006340;28;20026;-49
2023/12/17 00:25:07;;;;;;;16.27;10.48;;;7.00;98.60;;;;;;4988883;28;20069;-50
2023/12/17 00:27:33;;;;;;;20.30;11.45;;;6.90;98.60;;;;;;5005009;28;20049;-50
2023/12/17 00:29:58;;;;;;;18.15;11.82;;;6.90;98.60;;;;;;5006031;28;20495;-50
2023/12/17 00:32:24;;;;;;;21.55;11.48;;;6.90;98.60;;;;;;5006204;28;20027;-50
2023/12/17 00:34:50;;;;;;;20.50;11.82;;;6.90;98.70;;;;;;5005050;28;20035;-50
2023/12/17 00:37:15;;;;;;;17.52;11.40;;;6.90;98.70;;;;;;5006112;28;20045;-50
2023/12/17 00:39:41;;;;;;;24.17;11.85;;;6.90;98.70;;;;;;5005995;28;20027;-50
2023/12/17 00:42:06;;;;;;;20.10;11.32;;;6.90;98.70;;;;;;4988727;28;20478;-49
2023/12/17 00:44:32;;;;;;;17.48;10.65;;;6.90;98.70;;;;;;5005928;28;20053;-50
2023/12/17 00:46:57;;;;;;;20.35;11.73;;;6.80;98.60;;;;;;5004964;28;20052;-50
2023/12/17 00:49:23;;;;;;;23.40;11.68;;;6.80;98.60;;;;;;5004568;28;20045;-50
2023/12/17 00:51:48;;;;;;;16.63;11.43;;;6.90;98.60;;;;;;5006068;28;20034;-49
2023/12/17 00:54:14;;;;;;;23.02;11.15;;;6.90;98.60;;;;;;4988562;28;20034;-50
2023/12/17 00:56:40;;;;;;;20.23;11.38;;;6.90;98.60;;;;;;5005850;28;20022;-50
2023/12/17 00:59:05;;;;;;;16.52;11.20;;;6.80;98.60;;;;;;5004508;28;20097;-50
2023/12/17 01:01:31;;;;;;;23.08;11.60;;;6.80;98.60;;;;;;5004939;28;20023;-49
2023/12/17 01:03:56;;;;;;;17.90;12.07;;;6.80;98.70;;;;;;5005689;28;20052;-50
2023/12/17 01:06:22;;;;;;;27.20;12.35;;;6.80;98.70;;;;;;5004590;28;20505;-50
2023/12/17 01:08:48;;;;;;;19.30;11.93;;;6.80;98.70;;;;;;5004252;28;20045;-50
2023/12/17 01:11:13;;;;;;;20.95;12.00;;;6.80;98.70;;;;;;5004530;28;20034;-50
2023/12/17 01:13:39;;;;;;;22.13;12.35;;;6.80;98.70;;;;;;5004102;28;20051;-48
2023/12/17 01:16:05;;;;;;;14.52;10.88;;;6.80;98.70;;;;;;4988309;28;20034;-50
2023/12/17 01:18:30;;;;;;;17.73;11.60;;;6.80;98.70;;;;;;5005675;28;20030;-49
2023/12/17 01:20:59;;;;;;;19.92;12.02;;;6.80;98.70;;;;;;5004403;28;20490;-50
2023/12/17 01:23:24;;;;;;;21.10;11.63;;;6.70;98.70;;;;;;5003981;28;20033;-50
2023/12/17 01:25:50;;;;;;;18.67;11.38;;;6.70;98.70;;;;;;5004325;28;20416;-50
2023/12/17 01:28:15;;;;;;;19.63;11.63;;;6.70;98.70;;;;;;5005300;28;20034;-50
2023/12/17 01:30:41;;;;;;;16.58;11.60;;;6.70;98.70;;;;;;4987902;28;20084;-50
2023/12/17 01:33:06;;;;;;;18.70;10.80;;;6.70;98.70;;;;;;5005138;28;20033;-50
2023/12/17 01:35:32;;;;;;;16.40;11.45;;;6.70;98.70;;;;;;4987665;28;20041;-49
2023/12/17 01:37:58;;;;;;;17.85;11.40;;;6.70;98.70;;;;;;5004082;28;20045;-50
2023/12/17 01:40:23;;;;;;;17.63;11.50;;;6.70;98.70;;;;;;5005118;28;20039;-50
2023/12/17 01:42:52;;;;;;;14.68;11.32;;;6.70;98.60;;;;;;5004257;28;20030;-50
2023/12/17 01:45:18;;;;;;;20.00;12.65;;;6.70;98.60;;;;;;5005077;28;20031;-50
2023/12/17 01:47:44;;;;;;;16.65;11.27;;;6.70;98.70;;;;;;5003924;28;20109;-50
2023/12/17 01:50:09;;;;;;;20.67;11.93;;;6.70;98.70;;;;;;4988010;28;20037;-50
2023/12/17 01:52:35;;;;;;;18.05;10.95;;;6.70;98.70;;;;;;4971689;28;20094;-50
2023/12/17 01:55:01;;;;;;;17.10;10.93;;;6.70;98.70;;;;;;5003972;28;20037;-49
2023/12/17 01:57:26;;;;;;;16.42;11.07;;;6.60;99.00;;;;;;4971545;28;20389;-50
2023/12/17 01:59:52;;;;;;;19.40;12.00;;;6.70;98.70;;;;;;4971141;28;20022;-50
2023/12/17 02:02:17;;;;;;;20.52;11.68;;;6.70;98.70;;;;;;4987035;28;20027;-50
2023/12/17 02:04:43;;;;;;;17.83;11.10;;;6.70;98.70;;;;;;5004981;28;20038;-50
2023/12/17 02:07:09;;;;;;;15.65;11.35;;;6.70;98.70;;;;;;5003748;28;20493;-49
2023/12/17 02:09:34;;;;;;;16.35;11.50;;;6.70;98.70;;;;;;5004600;28;20054;-50
2023/12/17 02:12:00;;;;;;;17.08;10.65;;;6.70;98.70;;;;;;4987567;28;20034;-50
2023/12/17 02:14:25;;;;;;;13.90;11.13;;;6.70;98.80;;;;;;5004850;28;20462;-49
2023/12/17 02:16:51;;;;;;;17.95;11.85;;;6.60;98.80;;;;;;5003567;28;20018;-50
2023/12/17 02:19:16;;;;;;;21.13;12.02;;;6.60;98.70;;;;;;5004776;28;20382;-50
2023/12/17 02:21:42;;;;;;;15.63;11.60;;;6.60;98.80;;;;;;5003669;28;20038;-50
2023/12/17 02:24:08;;;;;;;16.73;11.85;;;6.60;98.80;;;;;;4987064;28;20040;-50
2023/12/17 02:26:33;;;;;;;19.25;10.95;;;6.60;98.80;;;;;;4987100;28;20045;-50
2023/12/17 02:28:59;;;;;;;17.05;11.75;;;6.60;98.80;;;;;;4986949;28;20030;-50
2023/12/17 02:31:24;;;;;;;13.65;10.45;;;6.60;98.80;;;;;;5003118;28;20039;-50
2023/12/17 02:33:50;;;;;;;16.10;11.85;;;6.60;98.80;;;;;;5004485;28;20030;-50
2023/12/17 02:36:15;;;;;;;14.43;11.88;;;6.60;98.80;;;;;;5003425;28;20126;-50
2023/12/17 02:38:41;;;;;;;21.27;12.15;;;6.60;98.80;;;;;;5004358;28;20031;-50
2023/12/17 02:41:07;;;;;;;16.45;12.18;;;6.60;98.80;;;;;;4986543;28;20030;-50
2023/12/17 02:43:32;;;;;;;15.60;11.82;;;6.60;98.80;;;;;;5003494;28;20030;-49
2023/12/17 02:45:58;;;;;;;15.43;12.65;;;6.60;98.80;;;;;;4986809;28;20035;-50
2023/12/17 02:48:23;;;;;;;17.27;11.52;;;6.60;98.80;;;;;;5003874;28;20034;-49
2023/12/17 02:50:49;;;;;;;15.95;12.48;;;6.60;98.80;;;;;;5003211;28;20623;-50
2023/12/17 02:53:14;;;;;;;17.02;12.15;;;6.60;98.80;;;;;;5004193;28;20026;-50
2023/12/17 02:55:40;;;;;;;21.77;11.75;;;6.60;98.80;;;;;;5003583;28;20030;-49
2023/12/17 02:58:06;;;;;;;17.10;12.02;;;6.60;98.80;;;;;;5004239;28;20068;-49
2023/12/17 03:00:31;;;;;;;16.55;12.30;;;6.60;98.80;;;;;;5003054;28;20437;-50
2023/12/17 03:02:57;;;;;;;15.20;12.00;;;6.60;98.80;;;;;;5003558;28;20478;-50
2023/12/17 03:05:23;;;;;;;14.88;11.95;;;6.60;98.80;;;;;;5003561;28;20042;-50
2023/12/17 03:07:48;;;;;;;16.10;11.65;;;6.50;98.80;;;;;;5004458;28;20649;-49
2023/12/17 03:10:14;;;;;;;16.45;12.80;;;6.50;98.80;;;;;;5003292;28;20046;-51
2023/12/17 03:12:39;;;;;;;15.95;12.77;;;6.50;98.80;;;;;;5003142;28;20030;-50
2023/12/17 03:15:06;;;;;;;16.85;13.13;;;6.50;98.80;;;;;;5002918;28;20065;-50
2023/12/17 03:17:31;;;;;;;15.93;12.30;;;6.50;99.10;;;;;;5002743;28;20078;-50
2023/12/17 03:19:57;;;;;;;20.63;14.25;;;6.50;98.80;;;;;;5002860;28;20023;-50
2023/12/17 03:22:22;;;;;;;15.77;12.15;;;6.50;98.80;;;;;;4986304;28;20042;-50
2023/12/17 03:24:48;;;;;;;16.30;12.55;;;6.50;98.80;;;;;;5002682;28;20056;-50
2023/12/17 03:27:13;;;;;;;17.13;12.57;;;6.50;98.90;;;;;;5002494;28;20031;-50
2023/12/17 03:29:39;;;;;;;15.70;12.77;;;6.50;98.90;;;;;;4986358;28;20030;-50
2023/12/17 03:32:05;;;;;;;16.73;12.43;;;6.50;98.90;;;;;;5003888;28;20030;-50
2023/12/17 03:34:31;;;;;;;17.38;12.48;;;6.50;98.90;;;;;;5003800;28;20026;-50
2023/12/17 03:36:56;;;;;;;17.60;12.35;;;6.50;98.90;;;;;;5003707;28;20054;-50
2023/12/17 03:39:22;;;;;;;17.90;12.52;;;6.50;98.90;;;;;;5002504;28;20058;-50
2023/12/17 03:41:47;;;;;;;15.32;12.48;;;6.50;98.90;;;;;;5003668;28;20037;-50
2023/12/17 03:44:13;;;;;;;15.20;12.30;;;6.40;98.90;;;;;;4985899;28;20571;-49
2023/12/17 03:46:39;;;;;;;17.45;13.75;;;6.50;98.90;;;;;;5003855;28;20045;-50
2023/12/17 03:49:04;;;;;;;15.52;12.32;;;6.40;98.90;;;;;;4986106;28;20057;-50
2023/12/17 03:51:30;;;;;;;16.45;13.00;;;6.40;98.90;;;;;;5003497;28;20034;-50
2023/12/17 03:53:55;;;;;;;17.65;13.20;;;6.40;98.90;;;;;;5002107;28;20034;-50
2023/12/17 03:56:23;;;;;;;15.00;12.77;;;6.40;98.90;;;;;;5003389;28;20375;-50
2023/12/17 03:58:48;;;;;;;14.48;12.30;;;6.40;98.90;;;;;;5002068;28;20490;-50
2023/12/17 04:01:14;;;;;;;17.75;12.13;;;6.40;98.80;;;;;;5002274;28;20037;-49
2023/12/17 04:03:40;;;;;;;16.70;12.43;;;6.40;98.80;;;;;;4985941;28;20018;-50
2023/12/17 04:06:06;;;;;;;14.82;12.32;;;6.40;98.80;;;;;;5001970;28;20111;-50
2023/12/17 04:08:32;;;;;;;14.35;12.27;;;6.40;98.80;;;;;;5003225;28;20485;-50
2023/12/17 04:10:57;;;;;;;14.02;12.15;;;6.40;98.70;;;;;;5002247;28;20026;-50
2023/12/17 04:13:23;;;;;;;14.40;12.60;;;6.40;98.70;;;;;;4986146;28;20060;-50
2023/12/17 04:15:48;;;;;;;15.18;12.73;;;6.40;98.70;;;;;;5001868;28;20035;-50
2023/12/17 04:18:14;;;;;;;13.23;11.80;;;6.40;98.70;;;;;;5003251;28;20034;-50
2023/12/17 04:20:39;;;;;;;17.17;13.02;;;6.40;98.70;;;;;;5001876;28;20030;-50
2023/12/17 04:23:05;;;;;;;18.85;13.13;;;6.40;98.70;;;;;;5003140;28;20030;-49
2023/12/17 04:25:31;;;;;;;16.48;13.63;;;6.40;98.70;;;;;;5005061;28;20031;-50
2023/12/17 04:27:56;;;;;;;22.02;13.27;;;6.40;98.70;;;;;;5005339;28;20018;-50
2023/12/17 04:30:22;;;;;;;16.42;13.10;;;6.40;98.70;;;;;;5006278;28;20126;-50
2023/12/17 04:32:48;;;;;;;17.80;12.25;;;6.40;98.70;;;;;;5005045;28;20030;-50
2023/12/17 04:35:14;;;;;;;17.10;12.23;;;6.40;98.80;;;;;;5005135;28;20490;-50
2023/12/17 04:37:39;;;;;;;14.13;12.52;;;6.40;98.80;;;;;;5006124;28;20057;-50
2023/12/17 04:40:06;;;;;;;14.95;13.00;;;6.40;98.80;;;;;;4988932;28;20030;-50
2023/12/17 04:42:31;;;;;;;13.77;12.27;;;6.40;98.80;;;;;;5006726;28;20018;-49
2023/12/17 04:44:57;;;;;;;13.88;12.15;;;6.30;98.70;;;;;;5006752;28;20033;-49
2023/12/17 04:47:23;;;;;;;16.83;12.85;;;6.30;98.80;;;;;;4989064;28;20031;-50
2023/12/17 04:49:49;;;;;;;16.13;11.98;;;6.30;98.80;;;;;;5004983;28;20026;-49
2023/12/17 04:52:14;;;;;;;14.30;12.38;;;6.30;98.80;;;;;;5005270;28;20046;-50
2023/12/17 04:54:40;;;;;;;17.38;12.95;;;6.40;98.80;;;;;;5006423;28;20030;-50
2023/12/17 04:57:05;;;;;;;16.67;12.65;;;6.30;98.80;;;;;;5005083;28;20027;-49
2023/12/17 04:59:31;;;;;;;15.05;12.20;;;6.30;98.80;;;;;;5006249;28;20084;-50
2023/12/17 05:01:56;;;;;;;14.35;12.13;;;6.30;98.80;;;;;;5004882;28;20056;-50
2023/12/17 05:04:22;;;;;;;14.88;12.85;;;6.30;98.80;;;;;;5005810;28;20034;-50
2023/12/17 05:06:47;;;;;;;13.63;11.85;;;6.30;98.80;;;;;;5004620;28;20031;-50
2023/12/17 05:09:13;;;;;;;14.77;12.57;;;6.40;98.80;;;;;;4988416;28;20062;-50
2023/12/17 05:11:39;;;;;;;14.50;12.40;;;6.30;98.80;;;;;;5005798;28;20037;-50
2023/12/17 05:14:04;;;;;;;16.45;12.68;;;6.30;98.80;;;;;;5005856;28;20359;-50
2023/12/17 05:16:30;;;;;;;15.73;13.15;;;6.30;98.80;;;;;;5004582;28;20030;-50
2023/12/17 05:18:55;;;;;;;14.75;12.38;;;6.30;98.80;;;;;;5004581;28;20082;-49
2023/12/17 05:21:21;;;;;;;14.57;12.65;;;6.30;98.80;;;;;;4972016;28;20033;-50
2023/12/17 05:23:46;;;;;;;13.60;11.63;;;6.30;98.80;;;;;;5004384;28;20046;-50
2023/12/17 05:26:12;;;;;;;17.77;12.95;;;6.30;98.80;;;;;;4972025;28;20027;-49
2023/12/17 05:28:41;;;;;;;14.25;12.40;;;6.30;98.80;;;;;;5005724;28;20053;-50
2023/12/17 05:31:06;;;;;;;14.23;12.10;;;6.30;98.80;;;;;;5003984;28;20091;-50
2023/12/17 05:33:32;;;;;;;13.15;11.75;;;6.30;98.80;;;;;;5003814;28;20080;-49
2023/12/17 05:35:58;;;;;;;13.57;12.18;;;6.30;98.70;;;;;;5004432;28;20038;-50
2023/12/17 05:38:27;;;;;;;15.98;12.95;;;6.30;98.80;;;;;;5004983;28;20030;-50
2023/12/17 05:40:56;;;;;;;16.63;12.68;;;6.30;98.70;;;;;;4988295;28;20095;-50
2023/12/17 05:43:21;;;;;;;14.00;12.25;;;6.30;98.80;;;;;;5004190;28;20037;-49
2023/12/17 05:45:47;;;;;;;14.32;12.07;;;6.30;98.80;;;;;;5004032;28;20034;-50
2023/12/17 05:48:14;;;;;;;16.92;13.02;;;6.30;98.80;;;;;;5005173;28;20042;-50
2023/12/17 05:50:40;;;;;;;15.70;12.88;;;6.30;98.80;;;;;;5004040;28;20046;-50
2023/12/17 05:53:06;;;;;;;15.65;12.27;;;6.30;98.80;;;;;;5003883;28;20030;-50
2023/12/17 05:55:31;;;;;;;15.15;12.10;;;6.30;98.80;;;;;;5005054;28;20053;-50
2023/12/17 05:57:57;;;;;;;14.20;11.88;;;6.30;98.80;;;;;;5005072;28;20022;-50
2023/12/17 06:00:22;;;;;;;15.25;11.88;;;6.30;98.80;;;;;;5005040;28;20030;-50
2023/12/17 06:02:48;;;;;;;13.35;11.95;;;6.20;98.70;;;;;;5003764;28;20030;-50
2023/12/17 06:05:14;;;;;;;14.43;12.07;;;6.30;98.80;;;;;;5003992;28;20034;-50
2023/12/17 06:07:39;;;;;;;14.15;12.43;;;6.20;98.70;;;;;;5004732;28;20030;-50
2023/12/17 06:10:05;;;;;;;13.48;11.95;;;6.20;98.80;;;;;;5003671;28;20060;-49
2023/12/17 06:12:31;;;;;;;16.55;12.20;;;6.20;98.80;;;;;;4987226;28;20110;-49
2023/12/17 06:14:57;;;;;;;16.00;13.75;;;6.20;98.80;;;;;;5004979;28;20031;-50
2023/12/17 06:17:22;;;;;;;15.77;12.57;;;6.20;98.80;;;;;;5003712;28;20050;-50
2023/12/17 06:19:48;;;;;;;13.70;11.85;;;6.20;98.80;;;;;;5003538;28;20027;-50
2023/12/17 06:22:16;;;;;;;13.57;12.02;;;6.20;98.80;;;;;;5003494;28;20037;-49
2023/12/17 06:24:41;;;;;;;15.90;13.18;;;6.20;98.90;;;;;;5003860;28;20052;-50
2023/12/17 06:27:15;;;;;;;14.65;11.80;;;6.20;98.90;;;;;;5004851;28;20537;-50
2023/12/17 06:29:40;;;;;;;15.25;12.98;;;6.20;98.90;;;;;;5003590;28;20040;-50
2023/12/17 06:32:07;;;;;;;15.32;12.57;;;6.20;98.90;;;;;;5003206;28;20034;-50
2023/12/17 06:34:33;;;;;;;14.55;11.80;;;6.20;98.90;;;;;;5004549;28;20035;-50
2023/12/17 06:37:00;;;;;;;15.63;12.57;;;6.20;98.90;;;;;;5003250;28;20086;-50
2023/12/17 06:39:26;;;;;;;14.93;11.80;;;6.20;98.90;;;;;;5003504;28;20048;-50
2023/12/17 06:41:51;;;;;;;17.90;13.05;;;6.20;98.90;;;;;;5003437;28;20030;-50
2023/12/17 06:44:17;;;;;;;16.52;12.85;;;6.20;98.90;;;;;;5005050;28;20022;-50
2023/12/17 06:46:42;;;;;;;16.35;12.45;;;6.20;98.80;;;;;;4986854;28;20512;-49
2023/12/17 06:49:08;;;;;;;15.05;12.30;;;6.20;98.80;;;;;;5003216;28;20070;-50
2023/12/17 06:51:38;;;;;;;14.73;12.73;;;6.10;98.80;;;;;;5003011;28;20038;-50
2023/12/17 06:54:03;;;;;;;14.15;12.50;;;6.10;98.80;;;;;;5002770;28;20030;-51
2023/12/17 06:56:29;;;;;;;16.60;12.18;;;6.10;98.80;;;;;;5004195;28;20027;-50
2023/12/17 06:58:54;;;;;;;14.05;12.48;;;6.10;98.80;;;;;;5004269;28;20030;-50
2023/12/17 07:01:20;;;;;;;15.85;13.02;;;6.10;98.80;;;;;;5004126;28;20543;-50
2023/12/17 07:03:46;;;;;;;13.68;11.73;;;6.10;98.90;;;;;;5002875;28;20037;-50
2023/12/17 07:06:12;;;;;;;14.63;12.00;;;6.10;98.80;;;;;;5002992;28;20109;-50
2023/12/17 07:08:37;;;;;;;15.45;12.43;;;6.10;98.80;;;;;;5002807;28;20038;-49
2023/12/17 07:11:03;;;;;;;19.40;12.60;;;6.10;98.80;;;;;;5004128;28;20034;-50
2023/12/17 07:13:29;;;;;;;14.52;12.25;;;6.10;98.80;;;;;;5002631;28;20470;-50
2023/12/17 07:15:54;;;;;;;13.23;11.63;;;6.10;98.90;;;;;;4986458;28;20049;-50
2023/12/17 07:18:20;;;;;;;14.40;12.13;;;6.10;98.90;;;;;;5002716;28;20042;-49
2023/12/17 07:20:47;;;;;;;14.18;12.40;;;6.10;98.80;;;;;;5003933;28;20031;-50
2023/12/17 07:23:12;;;;;;;15.70;13.05;;;6.20;98.90;;;;;;5002706;28;20046;-50
2023/12/17 07:25:38;;;;;;;15.10;12.38;;;6.10;98.80;;;;;;4986520;28;20038;-50
2023/12/17 07:28:04;;;;;;;14.63;12.80;;;6.10;98.90;;;;;;5002501;28;20034;-50
2023/12/17 07:30:30;;;;;;;15.77;12.93;;;6.10;98.90;;;;;;4986238;28;20034;-50
2023/12/17 07:32:55;;;;;;;13.98;11.55;;;6.10;98.90;;;;;;5002568;28;20033;-50
2023/12/17 07:35:21;;;;;;;14.00;12.23;;;6.10;98.90;;;;;;5003539;28;20057;-49
2023/12/17 07:37:46;;;;;;;15.65;12.25;;;6.10;98.80;;;;;;5002392;28;20026;-50
2023/12/17 07:40:12;;;;;;;15.57;13.00;;;6.10;98.80;;;;;;5003640;28;20022;-50
2023/12/17 07:42:38;;;;;;;15.15;12.38;;;6.10;98.90;;;;;;5002320;28;20030;-50
2023/12/17 07:45:04;;;;;;;15.20;12.75;;;6.10;98.90;;;;;;5003731;28;20497;-50
2023/12/17 07:47:30;;;;;;;14.93;12.63;;;6.10;98.90;;;;;;5002365;28;20083;-50
2023/12/17 07:49:57;;;;;;;14.55;11.85;;;6.10;98.90;;;;;;5002595;28;20486;-50
2023/12/17 07:52:22;;;;;;;16.15;13.15;;;6.10;98.90;;;;;;5002285;28;20094;-50
2023/12/17 07:54:48;;;;;;;15.20;12.65;;;6.10;98.90;;;;;;5003817;28;20034;-50
2023/12/17 07:57:13;;;;;;;15.23;12.93;;;6.10;98.90;;;;;;5002219;28;20023;-50
2023/12/17 07:59:39;;;;;;;14.35;11.85;;;6.10;98.90;;;;;;5004046;28;20052;-50
2023/12/17 08:02:05;;;;;;;14.45;12.32;;;6.10;98.90;;;;;;5006918;28;20031;-50
2023/12/17 08:04:30;;;;;;;15.60;12.98;;;6.10;98.90;;;;;;5005879;28;20090;-50
2023/12/17 08:06:56;;;;;;;14.23;11.77;;;6.10;98.90;;;;;;5005511;28;20034;-50
2023/12/17 08:09:22;;;;;;;16.23;13.00;;;6.10;98.90;;;;;;5006972;28;20039;-50
2023/12/17 08:11:47;;;;;;;14.35;12.50;;;6.00;98.80;;;;;;5005411;28;20034;-49
2023/12/17 08:14:13;;;;;;;14.10;12.57;;;6.00;98.90;;;;;;5006730;28;20042;-50
2023/12/17 08:16:38;;;;;;;16.05;13.45;;;6.10;98.90;;;;;;4989005;28;20123;-50
2023/12/17 08:19:04;;;;;;;15.15;12.25;;;6.10;98.90;;;;;;4989034;28;20027;-50
2023/12/17 08:21:29;;;;;;;14.68;12.63;;;6.10;98.80;;;;;;5006528;28;20382;-50
2023/12/17 08:23:56;;;;;;;17.00;13.38;;;6.00;98.80;;;;;;5005133;28;20030;-50
2023/12/17 08:26:21;;;;;;;16.38;13.40;;;6.10;98.80;;;;;;5006485;28;20031;-50
2023/12/17 08:28:47;;;;;;;14.43;12.40;;;6.10;98.80;;;;;;4988845;28;20034;-50
2023/12/17 08:31:13;;;;;;;16.35;12.48;;;6.10;98.80;;;;;;5005230;28;20046;-50
2023/12/17 08:33:38;;;;;;;16.42;12.73;;;6.10;98.80;;;;;;5005058;28;20026;-49
2023/12/17 08:36:05;;;;;;;14.73;12.05;;;6.10;98.80;;;;;;5005691;28;20042;-50
2023/12/17 08:38:30;;;;;;;15.50;12.77;;;6.00;98.80;;;;;;5004928;28;20034;-50
2023/12/17 08:40:56;;;;;;;15.10;12.15;;;6.10;98.80;;;;;;5007601;28;20023;-50
2023/12/17 08:43:22;;;;;;;14.95;12.10;;;6.00;98.80;;;;;;5006165;28;20036;-49
2023/12/17 08:45:47;;;;;;;14.60;12.13;;;6.00;98.80;;;;;;5005975;28;20478;-50
2023/12/17 08:48:13;;;;;;;15.45;12.77;;;6.10;98.80;;;;;;5004827;28;20064;-50
2023/12/17 08:50:38;;;;;;;15.55;12.55;;;6.10;98.80;;;;;;5004606;28;20038;-50
2023/12/17 08:53:04;;;;;;;13.70;12.30;;;6.10;98.80;;;;;;5004466;28;20520;-50
2023/12/17 08:55:30;;;;;;;14.15;12.30;;;6.00;98.80;;;;;;5005798;28;20060;-50
2023/12/17 08:57:55;;;;;;;14.60;12.10;;;6.10;98.70;;;;;;5004809;28;20042;-50
2023/12/17 09:00:21;;;;;;;14.80;12.75;;;6.10;98.80;;;;;;5004805;28;20121;-50
2023/12/17 09:02:46;;;;;;;15.05;13.13;;;6.10;98.80;;;;;;5005358;28;20022;-50
2023/12/17 09:05:12;;;;;;;15.30;12.88;;;6.10;98.80;;;;;;5004768;28;20030;-50
2023/12/17 09:07:38;;;;;;;15.52;13.65;;;6.10;98.70;;;;;;5004350;28;20033;-50
2023/12/17 09:10:04;;;;;;;14.95;12.52;;;6.10;98.70;;;;;;5004933;28;20513;-50
2023/12/17 09:12:30;;;;;;;17.10;13.05;;;6.10;98.70;;;;;;5008781;28;20117;-50
2023/12/17 09:14:55;;;;;;;14.70;13.10;;;6.00;98.70;;;;;;4995030;28;20055;-50
2023/12/17 09:17:21;;;;;;;16.35;13.30;;;6.10;98.70;;;;;;4984798;28;20057;-50
2023/12/17 09:19:47;;;;;;;16.42;13.43;;;6.10;98.70;;;;;;4985582;28;20027;-50
2023/12/17 09:22:12;;;;;;;15.57;13.15;;;6.10;98.70;;;;;;4990592;28;20109;-50
2023/12/17 09:24:38;;;;;;;16.80;13.90;;;6.10;98.70;;;;;;5002056;28;20030;-50
2023/12/17 09:27:04;;;;;;;17.33;13.27;;;6.10;98.80;;;;;;5003996;28;20022;-50
2023/12/17 09:29:29;;;;;;;22.90;14.02;;;6.10;98.70;;;;;;5003216;28;20094;-50
2023/12/17 09:31:55;;;;;;;30.52;15.60;;;6.10;98.70;;;;;;5002161;28;20031;-58
2023/12/17 09:34:21;;;;;;;24.15;14.95;;;6.10;98.70;;;;;;5001841;28;20501;-58
2023/12/17 09:36:46;;;;;;;42.63;15.00;;;6.10;98.70;;;;;;5002022;28;20109;-58
2023/12/17 09:39:12;;;;;;;37.90;14.80;;;6.10;98.80;;;;;;5002815;28;20554;-57
2023/12/17 09:41:39;;;;;;;31.23;15.30;;;6.10;98.90;;;;;;5002223;28;20030;-58
2023/12/17 09:44:05;;;;;;;29.55;15.95;;;6.10;98.80;;;;;;5005097;28;20033;-58
2023/12/17 09:46:30;;;;;;;42.47;17.25;;;6.10;98.70;;;;;;5004153;28;20054;-58
2023/12/17 09:48:56;;;;;;;42.58;16.27;;;6.20;98.80;;;;;;5003938;28;20109;-57
2023/12/17 09:51:22;;;;;;;40.53;16.88;;;6.20;98.80;;;;;;5003706;28;20479;-57
2023/12/17 09:53:48;;;;;;;39.92;15.98;;;6.20;98.80;;;;;;4987394;28;20026;-58
2023/12/17 09:56:13;;;;;;;42.40;16.30;;;6.20;98.80;;;;;;5003889;28;20049;-58
2023/12/17 09:58:39;;;;;;;40.75;16.50;;;6.20;98.90;;;;;;4987370;28;20027;-58
2023/12/17 10:01:05;;;;;;;58.35;16.73;;;6.20;98.90;;;;;;5004716;28;20033;-58
2023/12/17 10:03:31;;;;;;;40.33;16.63;;;6.20;98.90;;;;;;5005560;28;20031;-58
2023/12/17 10:05:57;;;;;;;51.17;17.10;;;6.20;98.90;;;;;;5004786;28;20062;-58
2023/12/17 10:08:23;;;;;;;43.25;18.05;;;6.20;99.00;;;;;;5003198;28;20063;-58
2023/12/17 10:10:48;;;;;;;75.13;19.98;;;6.20;99.00;;;;;;4990981;28;20053;-57
2023/12/17 10:13:19;;;;;;;57.78;18.70;;;6.30;99.30;;;;;;4983944;28;20052;-58
2023/12/17 10:15:54;;;;;;;49.53;17.88;;;6.30;99.40;;;;;;4995901;28;20042;-58
2023/12/17 10:18:20;;;;;;;56.97;18.58;;;6.30;99.50;;;;;;4999429;28;20038;-58
2023/12/17 10:20:46;;;;;;;195.35;30.02;;;6.30;99.50;;;;;;5002265;28;20038;-58
2023/12/17 10:23:12;;;;;;;99.03;23.80;;;6.30;99.50;;;;;;5001256;28;20045;-58
2023/12/17 10:25:38;;;;;;;63.00;20.33;;;6.40;99.50;;;;;;5002518;28;20445;-58
2023/12/17 10:28:04;;;;;;;83.22;21.17;;;6.40;99.50;;;;;;5003512;28;20034;-58
2023/12/17 10:30:31;;;;;;;146.95;26.45;;;6.40;99.50;;;;;;5002938;28;20124;-58
2023/12/17 10:32:57;;;;;;;88.70;21.35;;;6.50;99.40;;;;;;5002001;28;20030;-58
2023/12/17 10:35:24;;;;;;;77.15;20.35;;;6.50;99.30;;;;;;4984753;28;20052;-58
2023/12/17 10:37:52;;;;;;;78.15;21.08;;;6.50;99.30;;;;;;5003461;28;20109;-58
2023/12/17 10:40:19;;;;;;;109.32;22.40;;;6.50;99.30;;;;;;5002834;28;20056;-58
2023/12/17 10:42:45;;;;;;;127.53;22.88;;;6.50;99.30;;;;;;5002394;28;20053;-58
2023/12/17 10:45:11;;;;;;;110.93;23.35;;;6.50;99.40;;;;;;4986471;28;20109;-58
2023/12/17 10:47:37;;;;;;;80.55;20.20;;;6.50;99.30;;;;;;4986252;28;20057;-58
2023/12/17 10:50:03;;;;;;;92.75;24.38;;;6.50;99.20;;;;;;5001355;28;20039;-58
2023/12/17 10:52:28;;;;;;;120.22;21.85;;;6.50;99.20;;;;;;5002055;28;20458;-58
2023/12/17 10:54:54;;;;;;;88.85;20.77;;;6.60;99.20;;;;;;5002436;28;20052;-58
2023/12/17 10:57:22;;;;;;;92.40;21.02;;;6.60;99.20;;;;;;5002956;28;20485;-56
2023/12/17 10:59:48;;;;;;;217.77;31.27;;;6.60;99.20;;;;;;5002433;28;20030;-58
2023/12/17 11:02:14;;;;;;;172.82;26.95;;;6.60;99.20;;;;;;5002685;28;20035;-58
2023/12/17 11:04:45;;;;;;;130.75;23.67;;;6.60;99.20;;;;;;5002132;28;20027;-58
2023/12/17 11:07:16;;;;;;;100.28;21.48;;;6.60;99.30;;;;;;4969900;28;20437;-58
2023/12/17 11:09:41;;;;;;;121.10;22.80;;;6.60;99.40;;;;;;5001997;28;20034;-58
2023/12/17 11:12:07;;;;;;;130.02;25.45;;;6.60;99.30;;;;;;5001264;28;20101;-58
2023/12/17 11:14:33;;;;;;;121.35;24.88;;;6.60;99.30;;;;;;5018265;28;20030;-58
2023/12/17 11:17:00;;;;;;;127.43;23.27;;;6.70;99.50;;;;;;4999731;28;20033;-58
2023/12/17 11:19:31;;;;;;;176.52;26.35;;;6.70;99.50;;;;;;5000211;28;20046;-57
2023/12/17 11:21:57;;;;;;;126.40;24.20;;;6.70;99.50;;;;;;5002342;28;20094;-58
2023/12/17 11:24:22;;;;;;;138.48;24.23;;;6.70;99.60;;;;;;5000242;28;20062;-58
2023/12/17 11:26:48;;;;;;;168.30;26.98;;;6.70;99.50;;;;;;5002381;28;20479;-58
2023/12/17 11:29:38;;;;;;;138.80;25.10;;;6.80;99.40;;;;;;4999677;28;20030;-58
2023/12/17 11:32:04;;;;;;;120.30;24.02;;;6.80;99.40;;;;;;4999455;28;20163;-57
2023/12/17 11:34:30;;;;;;;187.95;28.60;;;6.80;99.40;;;;;;4983942;28;20041;-58
2023/12/17 11:36:56;;;;;;;212.20;32.22;;;6.90;99.50;;;;;;5003646;28;20034;-58
2023/12/17 11:39:22;;;;;;;265.17;34.42;;;6.90;99.60;;;;;;5004951;28;20034;-58
2023/12/17 11:41:47;;;;;;;205.63;32.17;;;6.90;99.80;;;;;;5005046;28;20052;-58
2023/12/17 11:44:13;;;;;;;201.50;31.67;;;7.00;99.90;;;;;;5006605;28;20041;-58
2023/12/17 11:46:39;;;;;;;289.25;38.08;;;7.00;99.80;;;;;;5006297;28;20555;-58
2023/12/17 11:49:04;;;;;;;167.02;29.38;;;7.00;99.50;;;;;;5004246;28;20030;-58
2023/12/17 11:51:30;;;;;;;176.38;26.70;;;7.00;99.50;;;;;;5003860;28;20038;-58
2023/12/17 11:53:55;;;;;;;211.93;29.05;;;7.10;99.40;;;;;;5033391;28;20022;-58
2023/12/17 11:56:29;;;;;;;235.82;31.27;;;7.10;99.30;;;;;;4990243;28;20087;-58
2023/12/17 11:58:55;;;;;;;276.05;36.40;;;7.10;99.30;;;;;;4998872;28;20027;-58
2023/12/17 12:01:20;;;;;;;246.30;32.17;;;7.10;99.70;;;;;;4984927;28;20038;-58
2023/12/17 12:03:46;;;;;;;226.65;32.72;;;7.10;99.40;;;;;;5010122;28;20041;-58
2023/12/17 12:06:12;;;;;;;262.30;34.72;;;7.10;99.50;;;;;;5003714;28;20080;-58
2023/12/17 12:08:45;;;;;;;170.90;27.35;;;7.10;99.50;;;;;;5003570;28;20035;-58
2023/12/17 12:11:12;;;;;;;234.98;35.90;;;7.10;99.50;;;;;;5005346;28;20207;-58
2023/12/17 12:13:43;;;;;;;198.73;31.33;;;7.10;99.70;;;;;;5004223;28;20071;-57
2023/12/17 12:16:09;;;;;;;224.43;32.40;;;7.20;99.60;;;;;;5033850;28;20038;-58
2023/12/17 12:18:35;;;;;;;228.68;31.17;;;7.20;99.70;;;;;;5006212;28;20055;-58
2023/12/17 12:21:00;;;;;;;258.08;32.80;;;7.20;99.60;;;;;;5005207;28;20082;-58
2023/12/17 12:23:26;;;;;;;245.65;32.92;;;7.20;99.60;;;;;;5004633;28;20045;-58
2023/12/17 12:25:58;;;;;;;226.82;34.90;;;7.30;99.60;;;;;;4985130;28;20494;-58
2023/12/17 12:28:24;;;;;;;161.60;27.63;;;7.30;99.70;;;;;;5003185;28;20033;-58